Time;durP1;ratioP1;P1;durP2;ratioP2;P2;SDS_P1;SDS_P2;PMS_P1;PMS_P2;Temp;Humidity;BMP_temperature;BMP_pressure;BME280_temperature;BME280_humidity;BME280_pressure;Samples;Min_cycle;Max_cycle;Signal;HPM_P1;HPM_P2
2023/08/29 00:02:14;;;;;;;;;4.00;4.00;;;;;19.34;100.00;101097.03;5056259;28;45428;-75
2023/08/29 00:04:40;;;;;;;;;5.00;3.00;;;;;19.35;100.00;101098.78;5056323;28;45772;-75
2023/08/29 00:07:05;;;;;;;;;3.33;3.33;;;;;19.35;100.00;101102.34;5050841;28;45178;-75
2023/08/29 00:09:31;;;;;;;;;2.00;2.00;;;;;19.38;100.00;101102.25;5056210;28;46956;-75
2023/08/29 00:11:57;;;;;;;;;2.33;2.00;;;;;19.36;100.00;101103.22;5055983;28;45705;-75
2023/08/29 00:14:22;;;;;;;;;4.33;2.00;;;;;19.32;100.00;101105.06;5056939;28;45193;-75
2023/08/29 00:16:47;;;;;;;;;4.67;3.00;;;;;19.35;100.00;101102.34;5056051;28;54953;-75
2023/08/29 00:19:14;;;;;;;;;2.00;2.00;;;;;19.40;100.00;101104.06;5055315;28;46566;-75
2023/08/29 00:21:41;;;;;;;;;3.00;3.00;;;;;19.35;100.00;101099.66;5058466;28;45406;-75
2023/08/29 00:24:07;;;;;;;;;4.33;3.00;;;;;19.33;100.00;101095.25;5056354;28;45448;-75
2023/08/29 00:26:32;;;;;;;;;3.00;3.00;;;;;19.30;100.00;101098.00;5056144;28;45463;-75
2023/08/29 00:28:58;;;;;;;;;3.00;3.00;;;;;19.34;100.00;101099.72;5052317;28;54354;-75
2023/08/29 00:31:23;;;;;;;;;3.00;3.00;;;;;19.30;100.00;101098.88;5055617;28;57799;-75
2023/08/29 00:33:48;;;;;;;;;2.67;2.67;;;;;19.29;100.00;101099.78;5058301;28;45362;-75
2023/08/29 00:36:14;;;;;;;;;6.00;3.33;;;;;19.28;100.00;101105.16;5056614;28;45565;-75
2023/08/29 00:38:39;;;;;;;;;4.00;4.00;;;;;19.24;100.00;101107.03;5054983;28;54653;-75
2023/08/29 00:41:04;;;;;;;;;4.00;2.67;;;;;19.26;100.00;101102.53;5055935;28;45334;-75
2023/08/29 00:43:30;;;;;;;;;4.00;2.00;;;;;19.21;100.00;101095.50;5056092;28;45620;-75
2023/08/29 00:45:55;;;;;;;;;4.00;3.33;;;;;19.20;100.00;101097.28;5056280;28;45529;-75
2023/08/29 00:48:21;;;;;;;;;2.00;2.00;;;;;19.17;100.00;101093.78;5055064;28;55437;-75
2023/08/29 00:50:47;;;;;;;;;4.67;3.00;;;;;19.11;100.00;101093.00;5055203;28;60003;-75
2023/08/29 00:53:14;;;;;;;;;3.00;3.00;;;;;19.09;100.00;101091.28;5056333;28;45205;-75
2023/08/29 00:55:39;;;;;;;;;3.00;3.00;;;;;19.09;100.00;101091.28;5055666;28;45243;-75
2023/08/29 00:58:04;;;;;;;;;2.67;2.67;;;;;19.11;100.00;101094.81;5055297;28;64099;-75
2023/08/29 01:00:31;;;;;;;;;4.33;3.00;;;;;19.09;100.00;101089.47;5055098;28;45411;-75
2023/08/29 01:02:57;;;;;;;;;3.33;3.33;;;;;19.07;100.00;101088.66;5055818;28;45361;-75
2023/08/29 01:05:23;;;;;;;;;4.67;4.00;;;;;19.07;100.00;101090.44;5058790;28;45513;-75
2023/08/29 01:07:53;;;;;;;;;5.00;3.00;;;;;19.05;100.00;101090.44;5058865;28;47433;-75
2023/08/29 01:10:36;;;;;;;;;3.00;3.00;;;;;19.06;100.00;101091.31;5059166;28;45336;-75
2023/08/29 01:13:25;;;;;;;;;3.00;3.00;;;;;19.03;100.00;101086.94;5033729;28;45241;-75
2023/08/29 01:15:52;;;;;;;;;4.00;4.00;;;;;19.03;100.00;101096.75;5041667;28;45419;-75
2023/08/29 01:18:19;;;;;;;;;3.33;3.33;;;;;19.05;100.00;101094.94;5058370;28;47266;-75
2023/08/29 01:20:48;;;;;;;;;6.00;6.00;;;;;18.98;100.00;101093.28;5024601;28;46324;-75
2023/08/29 01:23:24;;;;;;;;;4.00;4.00;;;;;18.96;100.00;101089.75;5063090;28;45300;-75
2023/08/29 01:26:11;;;;;;;;;6.00;4.67;;;;;18.94;100.00;101080.88;5041123;28;45609;-75
2023/08/29 01:28:37;;;;;;;;;4.00;4.00;;;;;18.96;100.00;101089.75;5054744;28;46922;-75
2023/08/29 01:31:04;;;;;;;;;3.00;3.00;;;;;18.96;100.00;101079.03;5056628;28;45596;-75
2023/08/29 01:33:30;;;;;;;;;3.00;3.00;;;;;18.93;100.00;101074.66;5060627;28;45431;-75
2023/08/29 01:35:55;;;;;;;;;5.00;5.00;;;;;18.97;100.00;101070.13;5058961;28;45274;-75
2023/08/29 01:38:21;;;;;;;;;5.33;3.67;;;;;18.94;100.00;101075.53;5058440;28;47322;-75
2023/08/29 01:40:46;;;;;;;;;6.00;4.33;;;;;18.81;100.00;101078.44;5058969;28;45423;-75
2023/08/29 01:43:12;;;;;;;;;4.33;4.33;;;;;18.79;100.00;101082.91;5058130;28;48563;-75
2023/08/29 01:45:37;;;;;;;;;4.33;4.33;;;;;18.77;100.00;101076.72;5058494;28;45558;-75
2023/08/29 01:48:02;;;;;;;;;5.00;3.33;;;;;18.74;100.00;101083.91;5057218;28;46528;-75
2023/08/29 01:50:30;;;;;;;;;5.00;5.00;;;;;18.71;100.00;101087.56;5057391;28;45478;-75
2023/08/29 01:52:56;;;;;;;;;5.33;4.00;;;;;18.68;100.00;101084.91;5058621;28;45292;-75
2023/08/29 01:55:21;;;;;;;;;4.00;4.00;;;;;18.63;100.00;101081.41;5058566;28;45281;-75
2023/08/29 01:57:48;;;;;;;;;7.00;4.67;;;;;18.66;100.00;101084.03;5058035;28;52645;-75
2023/08/29 02:00:14;;;;;;;;;4.00;4.00;;;;;18.64;100.00;101085.84;5058126;28;45245;-74
2023/08/29 02:02:39;;;;;;;;;4.00;4.00;;;;;18.61;100.00;101087.72;5040679;28;45169;-75
2023/08/29 02:05:04;;;;;;;;;3.67;3.67;;;;;18.59;100.00;101091.31;5055709;28;45146;-75
2023/08/29 02:07:30;;;;;;;;;4.00;4.00;;;;;18.57;100.00;101090.44;5058317;28;46816;-75
2023/08/29 02:09:55;;;;;;;;;4.67;4.67;;;;;18.53;100.00;101086.03;5057333;28;60066;-74
2023/08/29 02:12:21;;;;;;;;;6.00;4.00;;;;;18.50;100.00;101083.44;5058157;28;45545;-75
2023/08/29 02:14:47;;;;;;;;;5.67;5.67;;;;;18.49;100.00;101094.16;5058117;28;49192;-75
2023/08/29 02:17:12;;;;;;;;;5.00;5.00;;;;;18.44;100.00;101090.69;5039683;28;47624;-75
2023/08/29 02:19:37;;;;;;;;;5.00;5.00;;;;;18.41;100.00;101088.94;5057565;28;45412;-75
2023/08/29 02:22:03;;;;;;;;;6.00;4.33;;;;;18.40;100.00;101087.19;5057104;28;45401;-75
2023/08/29 02:24:29;;;;;;;;;4.33;4.33;;;;;18.41;100.00;101094.28;5057782;28;45324;-75
2023/08/29 02:26:55;;;;;;;;;4.67;4.00;;;;;18.38;100.00;101097.03;5057973;28;45915;-75
2023/08/29 02:29:20;;;;;;;;;5.67;5.67;;;;;18.36;100.00;101104.16;5053103;28;45268;-75
2023/08/29 02:31:45;;;;;;;;;4.67;4.67;;;;;18.33;100.00;101098.91;5058300;28;45789;-75
2023/08/29 02:34:11;;;;;;;;;5.00;4.00;;;;;18.33;100.00;101099.78;5057317;28;54394;-75
2023/08/29 02:36:36;;;;;;;;;6.00;6.00;;;;;18.31;100.00;101101.56;5057689;28;47132;-75
2023/08/29 02:39:02;;;;;;;;;5.00;5.00;;;;;18.30;100.00;101098.94;5057212;28;53178;-75
2023/08/29 02:41:27;;;;;;;;;5.00;5.00;;;;;18.34;100.00;101100.66;5057901;28;45291;-75
2023/08/29 02:43:54;;;;;;;;;4.00;4.00;;;;;18.32;100.00;101107.78;5057396;28;47067;-75
2023/08/29 02:46:19;;;;;;;;;4.33;3.67;;;;;18.29;100.00;101106.06;5057565;28;47115;-75
2023/08/29 02:48:45;;;;;;;;;4.00;4.00;;;;;18.35;100.00;101107.75;5055527;28;45422;-75
2023/08/29 02:51:10;;;;;;;;;5.33;4.67;;;;;18.41;100.00;101104.09;5057107;28;45503;-75
2023/08/29 02:53:36;;;;;;;;;6.67;5.33;;;;;18.46;100.00;101104.91;5057614;28;45417;-75
2023/08/29 02:56:01;;;;;;;;;10.67;7.00;;;;;18.50;100.00;101102.16;5057003;28;46651;-75
2023/08/29 02:58:27;;;;;;;;;6.67;5.00;;;;;18.56;100.00;101093.13;5057250;28;45208;-75
2023/08/29 03:01:03;;;;;;;;;6.67;6.67;;;;;18.54;100.00;101092.31;5057411;28;45310;-75
2023/08/29 03:03:29;;;;;;;;;8.00;8.00;;;;;18.57;100.00;101089.56;5057728;28;45506;-75
2023/08/29 03:05:58;;;;;;;;;10.33;9.33;;;;;18.62;100.00;101093.03;5052847;28;46487;-75
2023/08/29 03:08:24;;;;;;;;;10.33;8.67;;;;;18.63;100.00;101091.22;5057251;28;45179;-75
2023/08/29 03:10:50;;;;;;;;;10.67;7.00;;;;;18.67;100.00;101099.19;5057279;28;45261;-75
2023/08/29 03:13:17;;;;;;;;;6.00;5.00;;;;;18.69;100.00;101089.34;5057130;28;45505;-75
2023/08/29 03:15:43;;;;;;;;;3.33;3.33;;;;;18.76;100.00;101092.81;5056935;28;46648;-75
2023/08/29 03:18:08;;;;;;;;;8.00;5.00;;;;;18.78;100.00;101091.00;5056557;28;45452;-75
2023/08/29 03:20:34;;;;;;;;;7.00;6.00;;;;;18.80;100.00;101087.38;5056854;28;45383;-75
2023/08/29 03:22:59;;;;;;;;;5.00;4.00;;;;;18.81;100.00;101073.09;5056855;28;45348;-75
2023/08/29 03:25:25;;;;;;;;;4.67;4.67;;;;;18.81;100.00;101082.91;5056385;28;58838;-75
2023/08/29 03:27:50;;;;;;;;;6.33;4.67;;;;;18.82;100.00;101071.31;5038021;28;45384;-75
2023/08/29 03:30:16;;;;;;;;;4.00;4.00;;;;;18.78;100.00;101075.81;5051853;28;45384;-75
2023/08/29 03:32:41;;;;;;;;;4.00;4.00;;;;;18.86;100.00;101078.38;5061093;28;45303;-75
2023/08/29 03:35:07;;;;;;;;;5.33;5.33;;;;;18.88;100.00;101072.97;5056465;28;55351;-75
2023/08/29 03:37:33;;;;;;;;;6.67;5.33;;;;;18.87;100.00;101076.56;5056812;28;45309;-75
2023/08/29 03:39:58;;;;;;;;;6.00;6.00;;;;;18.86;100.00;101072.13;5056943;28;45444;-75
2023/08/29 03:42:24;;;;;;;;;6.33;6.33;;;;;18.86;100.00;101073.00;5056809;28;45490;-75
2023/08/29 03:44:49;;;;;;;;;5.67;5.67;;;;;18.87;100.00;101068.53;5051806;28;47517;-75
2023/08/29 03:47:14;;;;;;;;;6.00;5.00;;;;;18.86;100.00;101072.13;5055958;28;62489;-75
2023/08/29 03:49:40;;;;;;;;;7.33;4.67;;;;;18.80;100.00;101071.34;5056549;28;45268;-75
2023/08/29 03:52:05;;;;;;;;;5.00;5.00;;;;;18.79;100.00;101066.88;5056557;28;45145;-75
2023/08/29 03:54:31;;;;;;;;;6.00;5.00;;;;;18.76;100.00;101074.09;5056569;28;48040;-75
2023/08/29 03:56:56;;;;;;;;;6.00;6.00;;;;;18.71;100.00;101065.28;5056584;28;45872;-75
2023/08/29 03:59:21;;;;;;;;;9.67;6.00;;;;;18.69;100.00;101070.63;5057003;28;45384;-75
2023/08/29 04:01:47;;;;;;;;;6.67;6.67;;;;;18.66;100.00;101067.13;5056167;28;47081;-75
2023/08/29 04:04:13;;;;;;;;;7.00;6.00;;;;;18.59;100.00;101061.88;5055907;28;63557;-75
2023/08/29 04:06:39;;;;;;;;;5.00;5.00;;;;;18.56;100.00;101066.41;5054909;28;45424;-75
2023/08/29 04:09:07;;;;;;;;;9.00;6.00;;;;;18.53;100.00;101070.00;5056550;28;45314;-75
2023/08/29 04:11:32;;;;;;;;;8.33;6.00;;;;;18.50;100.00;101067.41;5056628;28;45481;-75
2023/08/29 04:13:57;;;;;;;;;8.00;6.33;;;;;18.48;100.00;101065.63;5056165;28;47163;-75
2023/08/29 04:16:23;;;;;;;;;7.00;7.00;;;;;18.45;100.00;101063.91;5055577;28;45542;-75
2023/08/29 04:18:48;;;;;;;;;7.67;7.67;;;;;18.41;100.00;101054.19;5054960;28;45897;-75
2023/08/29 04:21:13;;;;;;;;;6.33;6.33;;;;;18.38;100.00;101064.06;5054425;28;55780;-75
2023/08/29 04:23:39;;;;;;;;;10.00;6.67;;;;;18.31;100.00;101064.16;5055106;28;47324;-75
2023/08/29 04:26:04;;;;;;;;;7.33;6.00;;;;;18.25;100.00;101064.25;5055601;28;61608;-75
2023/08/29 04:28:30;;;;;;;;;8.00;8.00;;;;;18.22;100.00;101063.44;5053390;28;51277;-75
2023/08/29 04:30:56;;;;;;;;;8.33;6.67;;;;;18.23;100.00;101059.84;5055781;28;45701;-75
2023/08/29 04:33:21;;;;;;;;;6.67;6.67;;;;;18.16;100.00;101056.38;5055528;28;45612;-75
2023/08/29 04:35:51;;;;;;;;;6.00;6.00;;;;;18.13;100.00;101056.44;5056659;28;45543;-75
2023/08/29 04:38:17;;;;;;;;;8.33;6.67;;;;;18.11;100.00;101058.28;5039797;28;45511;-75
2023/08/29 04:40:42;;;;;;;;;7.00;7.00;;;;;18.00;100.00;101063.78;5059350;28;48889;-75
2023/08/29 04:43:07;;;;;;;;;10.33;9.67;;;;;17.97;100.00;101065.63;5059213;28;65582;-75
2023/08/29 04:45:33;;;;;;;;;7.00;7.00;;;;;17.95;100.00;101065.66;5058843;28;52911;-75
2023/08/29 04:47:58;;;;;;;;;10.00;8.00;;;;;17.93;100.00;101061.22;5059030;28;45669;-75
2023/08/29 04:50:25;;;;;;;;;10.67;7.33;;;;;17.90;100.00;101051.47;5056765;28;45670;-74
2023/08/29 04:52:53;;;;;;;;;5.67;5.67;;;;;17.86;100.00;101056.91;5059332;28;47409;-75
2023/08/29 04:55:19;;;;;;;;;10.67;7.33;;;;;17.87;100.00;101059.53;5059264;28;45519;-75
2023/08/29 04:57:44;;;;;;;;;8.67;8.67;;;;;17.85;100.00;101058.69;5059677;28;45343;-75
2023/08/29 05:00:12;;;;;;;;;10.33;7.33;;;;;17.85;100.00;101061.34;5059135;28;45501;-75
2023/08/29 05:02:38;;;;;;;;;7.33;7.33;;;;;17.77;100.00;101060.56;5054097;28;47858;-74
2023/08/29 05:05:05;;;;;;;;;7.67;7.00;;;;;17.79;100.00;101062.34;5053849;28;45438;-74
2023/08/29 05:07:31;;;;;;;;;7.00;7.00;;;;;17.77;100.00;101064.13;5059459;28;45446;-74
2023/08/29 05:09:57;;;;;;;;;9.00;8.00;;;;;17.74;100.00;101063.31;5059060;28;45490;-74
2023/08/29 05:12:22;;;;;;;;;9.33;8.00;;;;;17.74;100.00;101068.66;5059131;28;46654;-76
2023/08/29 05:14:48;;;;;;;;;7.33;7.33;;;;;17.75;100.00;101068.63;5059019;28;45212;-73
2023/08/29 05:17:13;;;;;;;;;8.00;8.00;;;;;17.74;100.00;101060.63;5058880;28;45474;-75
2023/08/29 05:19:40;;;;;;;;;9.67;9.00;;;;;17.73;100.00;101059.72;5063639;28;46019;-73
2023/08/29 05:22:06;;;;;;;;;8.67;6.67;;;;;17.74;100.00;101056.19;5060165;28;47174;-73
2023/08/29 05:24:32;;;;;;;;;9.67;9.00;;;;;17.76;100.00;101062.38;5060585;28;45476;-76
2023/08/29 05:26:57;;;;;;;;;9.00;9.00;;;;;17.77;100.00;101063.25;5057295;28;45206;-74
2023/08/29 05:29:22;;;;;;;;;7.00;7.00;;;;;17.80;100.00;101065.88;5054291;28;45493;-74
2023/08/29 05:31:48;;;;;;;;;9.00;7.00;;;;;17.76;100.00;101062.38;5039414;28;67759;-73
2023/08/29 05:34:13;;;;;;;;;7.67;7.67;;;;;17.74;100.00;101068.66;5061559;28;45407;-74
2023/08/29 05:36:39;;;;;;;;;8.00;8.00;;;;;17.80;100.00;101068.56;5058702;28;45348;-74
2023/08/29 05:39:04;;;;;;;;;11.67;9.00;;;;;17.75;100.00;101068.63;5058436;28;45638;-75
2023/08/29 05:41:29;;;;;;;;;7.00;7.00;;;;;17.71;100.00;101065.97;5057540;28;45737;-75
2023/08/29 05:43:55;;;;;;;;;11.33;9.00;;;;;17.70;100.00;101070.44;5058128;28;45253;-74
2023/08/29 05:46:20;;;;;;;;;8.00;8.00;;;;;17.72;100.00;101068.66;5057864;28;62292;-73
2023/08/29 05:48:45;;;;;;;;;12.00;8.00;;;;;17.73;100.00;101074.88;5058672;28;45264;-74
2023/08/29 05:51:11;;;;;;;;;8.00;8.00;;;;;17.73;100.00;101064.19;5057355;28;50958;-74
2023/08/29 05:53:36;;;;;;;;;10.33;9.00;;;;;17.72;100.00;101068.66;5057940;28;53990;-74
2023/08/29 05:56:01;;;;;;;;;12.00;9.00;;;;;17.77;100.00;101071.25;5058051;28;47846;-73
2023/08/29 05:58:27;;;;;;;;;10.00;10.00;;;;;17.77;100.00;101061.44;5057730;28;56334;-75
2023/08/29 06:00:54;;;;;;;;;5.67;5.67;;;;;17.76;100.00;101056.16;5058037;28;46703;-75
2023/08/29 06:03:20;;;;;;;;;8.00;8.00;;;;;17.76;100.00;101058.81;5057560;28;45308;-74
2023/08/29 06:05:48;;;;;;;;;10.33;8.33;;;;;17.76;100.00;101070.38;5057261;28;55255;-74
2023/08/29 06:08:14;;;;;;;;;10.67;10.33;;;;;17.73;100.00;101062.41;5058683;28;45411;-75
2023/08/29 06:10:39;;;;;;;;;10.33;9.00;;;;;17.72;100.00;101067.72;5048910;28;62799;-74
2023/08/29 06:13:05;;;;;;;;;14.00;11.67;;;;;17.76;100.00;101069.50;5057751;28;51717;-77
2023/08/29 06:15:31;;;;;;;;;14.67;9.67;;;;;17.75;100.00;101060.59;5057645;28;45328;-74
2023/08/29 06:17:56;;;;;;;;;10.67;8.00;;;;;17.75;100.00;101067.75;5055502;28;45478;-74
2023/08/29 06:20:21;;;;;;;;;16.00;11.33;;;;;17.81;100.00;101070.31;5036545;28;59240;-75
2023/08/29 06:22:47;;;;;;;;;10.00;10.00;;;;;17.84;100.00;101069.38;5052759;28;52341;-75
2023/08/29 06:25:12;;;;;;;;;11.33;11.00;;;;;17.91;100.00;101066.59;5056112;28;45524;-74
2023/08/29 06:27:38;;;;;;;;;11.00;10.67;;;;;17.86;100.00;101057.78;5054629;28;45497;-73
2023/08/29 06:30:06;;;;;;;;;11.33;10.33;;;;;17.90;100.00;101061.28;5037987;28;46684;-76
2023/08/29 06:32:32;;;;;;;;;13.67;12.00;;;;;17.92;100.00;101057.66;5055866;28;45411;-74
2023/08/29 06:34:57;;;;;;;;;11.67;11.67;;;;;18.00;100.00;101068.22;5055993;28;45401;-74
2023/08/29 06:37:23;;;;;;;;;11.33;11.33;;;;;17.97;100.00;101069.16;5056262;28;45490;-75
2023/08/29 06:39:48;;;;;;;;;10.00;10.00;;;;;18.01;100.00;101076.25;5055049;28;45499;-76
2023/08/29 06:42:13;;;;;;;;;15.33;11.00;;;;;18.01;100.00;101081.59;5054740;28;46200;-76
2023/08/29 06:44:39;;;;;;;;;16.00;9.33;;;;;18.05;100.00;101077.06;5055932;28;46611;-76
2023/08/29 06:47:04;;;;;;;;;14.00;10.67;;;;;18.09;100.00;101068.09;5055063;28;45442;-74
2023/08/29 06:49:30;;;;;;;;;12.33;11.00;;;;;18.11;100.00;101074.31;5054729;28;47425;-75
2023/08/29 06:51:55;;;;;;;;;9.33;9.33;;;;;18.19;100.00;101064.34;5051972;28;45435;-74
2023/08/29 06:54:21;;;;;;;;;12.33;11.67;;;;;18.23;100.00;101065.19;5055047;28;53026;-74
2023/08/29 06:56:46;;;;;;;;;15.00;11.00;;;;;18.26;100.00;101060.66;5053441;28;55938;-75
2023/08/29 06:59:11;;;;;;;;;13.33;12.33;;;;;18.29;100.00;101070.44;5053783;28;45598;-74
2023/08/29 07:01:37;;;;;;;;;14.33;9.67;;;;;18.32;100.00;101067.69;5050372;28;47225;-74
2023/08/29 07:04:03;;;;;;;;;15.00;13.67;;;;;18.35;100.00;101069.44;5053475;28;45494;-74
2023/08/29 07:06:28;;;;;;;;;13.67;10.67;;;;;18.36;100.00;101073.88;5052857;28;45506;-76
2023/08/29 07:08:54;;;;;;;;;12.00;11.00;;;;;18.33;100.00;101075.72;5053904;28;64518;-72
2023/08/29 07:11:19;;;;;;;;;14.67;11.00;;;;;18.32;100.00;101076.63;5054743;28;45459;-74
2023/08/29 07:13:44;;;;;;;;;15.33;14.00;;;;;18.31;100.00;101082.84;5055195;28;45497;-75
2023/08/29 07:16:10;;;;;;;;;16.00;12.00;;;;;18.31;100.00;101081.97;5046728;28;45438;-73
2023/08/29 07:18:35;;;;;;;;;13.00;12.00;;;;;18.26;100.00;101082.03;5052407;28;45866;-73
2023/08/29 07:21:01;;;;;;;;;12.67;11.00;;;;;18.28;100.00;101087.41;5052936;28;62105;-74
2023/08/29 07:23:37;;;;;;;;;11.00;11.00;;;;;18.27;100.00;101088.31;5109081;27;45994;-74
2023/08/29 07:26:03;;;;;;;;;13.00;12.00;;;;;18.28;100.00;101085.59;5091068;27;45517;-72
2023/08/29 07:28:28;;;;;;;;;13.67;12.33;;;;;18.25;100.00;101082.97;5092356;27;46424;-74
2023/08/29 07:30:53;;;;;;;;;11.33;11.33;;;;;18.29;100.00;101086.47;5090559;27;45480;-74
2023/08/29 07:33:19;;;;;;;;;12.00;10.67;;;;;18.32;100.00;101078.38;5095216;27;60580;-72
2023/08/29 07:35:47;;;;;;;;;14.00;13.00;;;;;18.35;100.00;101081.03;5092064;27;45499;-72
2023/08/29 07:38:12;;;;;;;;;11.33;11.33;;;;;18.39;100.00;101079.19;5106204;27;45499;-72
2023/08/29 07:40:38;;;;;;;;;15.00;12.00;;;;;18.46;100.00;101083.50;5092137;27;45446;-73
2023/08/29 07:43:06;;;;;;;;;10.33;9.33;;;;;18.52;100.00;101094.09;5090646;27;45543;-72
2023/08/29 07:48:02;;;;;;;;;9.67;8.67;;;;;18.58;100.00;101084.16;5066534;27;45466;-75
2023/08/29 07:50:27;;;;;;;;;10.00;10.00;;;;;18.64;100.00;101085.84;5061102;28;45464;-74
2023/08/29 07:52:53;;;;;;;;;15.00;11.33;;;;;18.63;100.00;101084.09;5062791;27;46974;-75
2023/08/29 07:55:18;;;;;;;;;8.00;8.00;;;;;18.69;100.00;101084.00;5060669;27;45499;-73
2023/08/29 07:57:44;;;;;;;;;13.67;8.67;;;;;18.76;100.00;101085.69;5066546;28;45627;-74
2023/08/29 08:00:10;;;;;;;;;10.33;9.00;;;;;18.81;100.00;101083.78;5068299;28;45421;-74
2023/08/29 08:02:39;;;;;;;;;14.33;12.00;;;;;18.88;100.00;101081.88;5063408;28;46065;-74
2023/08/29 08:05:06;;;;;;;;;12.33;9.33;;;;;18.92;100.00;101080.03;5059008;28;45802;-74
2023/08/29 08:07:31;;;;;;;;;12.00;10.33;;;;;18.96;100.00;101073.69;5058340;28;45567;-74
2023/08/29 08:09:57;;;;;;;;;12.00;10.00;;;;;19.00;100.00;101072.72;5069649;28;60950;-73
2023/08/29 08:12:22;;;;;;;;;11.00;9.33;;;;;19.09;100.00;101080.56;5062816;28;53291;-74
2023/08/29 08:14:47;;;;;;;;;10.00;10.00;;;;;19.14;100.00;101073.34;5070180;28;55124;-73
2023/08/29 08:17:13;;;;;;;;;10.00;10.00;;;;;19.25;100.00;101079.34;5066002;28;54011;-73
2023/08/29 08:19:38;;;;;;;;;13.33;11.00;;;;;19.28;100.00;101073.03;5063204;28;45336;-73
2023/08/29 08:22:03;;;;;;;;;9.67;8.33;;;;;19.34;100.00;101075.59;5066548;28;46268;-75
2023/08/29 08:24:29;;;;;;;;;8.67;8.67;;;;;19.38;100.00;101067.44;5070507;28;45470;-75
2023/08/29 08:26:54;;;;;;;;;10.67;9.00;;;;;19.49;100.00;101063.66;5071114;28;45410;-76
2023/08/29 08:29:19;;;;;;;;;14.33;9.67;;;;;19.57;100.00;101062.59;5063900;28;45707;-76
2023/08/29 08:31:46;;;;;;;;;10.00;8.33;;;;;19.60;100.00;101059.88;5060987;28;47872;-76
2023/08/29 08:34:12;;;;;;;;;10.00;8.00;;;;;19.65;100.00;101058.88;5048967;28;47167;-74
2023/08/29 08:36:38;;;;;;;;;8.67;7.67;;;;;19.75;100.00;101058.63;5046705;28;45474;-73
2023/08/29 08:39:04;;;;;;;;;13.67;8.00;;;;;19.85;100.00;101060.16;5046811;28;45423;-73
2023/08/29 08:41:31;;;;;;;;;10.00;8.00;;;;;19.96;100.00;101053.69;5042853;28;46228;-74
2023/08/29 08:43:57;;;;;;;;;9.00;7.33;;;;;20.05;100.00;101054.34;5037520;28;57973;-74
2023/08/29 08:46:22;;;;;;;;;6.00;6.00;;;;;20.22;100.00;101056.59;5035372;28;45480;-75
2023/08/29 08:48:48;;;;;;;;;9.00;6.00;;;;;20.42;100.00;101058.78;5050717;28;45478;-75
2023/08/29 08:51:15;;;;;;;;;9.00;8.67;;;;;20.59;100.00;101037.78;5054217;28;67670;-75
2023/08/29 08:53:40;;;;;;;;;6.67;6.00;;;;;20.77;100.00;101043.56;5039001;28;45539;-75
2023/08/29 08:56:07;;;;;;;;;8.67;6.00;;;;;20.91;100.00;101041.38;5053178;28;55241;-76
2023/08/29 08:58:35;;;;;;;;;9.00;7.00;;;;;21.09;100.00;101039.94;5044156;28;45477;-74
2023/08/29 09:01:01;;;;;;;;;1.67;1.67;;;;;21.24;100.00;101039.50;5047158;28;47587;-74
2023/08/29 09:03:26;;;;;;;;;3.67;3.67;;;;;21.47;100.00;101040.69;5049385;28;52327;-73
2023/08/29 09:05:52;;;;;;;;;3.00;2.33;;;;;21.65;100.00;101038.28;5032336;28;45502;-74
2023/08/29 09:08:20;;;;;;;;;4.33;3.33;;;;;21.83;100.00;101036.78;5050633;28;45577;-73
2023/08/29 09:10:46;;;;;;;;;2.67;2.67;;;;;22.03;100.00;101036.16;5046864;28;47338;-75
2023/08/29 09:13:17;;;;;;;;;3.67;2.00;;;;;22.17;100.00;101024.97;5046168;28;45808;-74
2023/08/29 09:15:45;;;;;;;;;1.67;1.67;;;;;22.31;100.00;101024.50;5054110;28;45467;-74
2023/08/29 09:18:13;;;;;;;;;3.00;3.00;;;;;22.42;100.00;101016.91;5051308;28;46721;-74
2023/08/29 09:20:42;;;;;;;;;3.00;2.00;;;;;22.45;100.00;101015.00;5048737;28;45818;-75
2023/08/29 09:23:22;;;;;;;;;1.67;1.67;;;;;22.49;100.00;101022.06;5052684;28;45767;-75
2023/08/29 09:26:00;;;;;;;;;2.33;1.33;;;;;22.55;100.00;101017.38;5052181;28;45347;-73
2023/08/29 09:28:27;;;;;;;;;2.00;2.00;;;;;22.55;100.00;101025.47;5049283;28;46238;-75
2023/08/29 09:30:53;;;;;;;;;2.00;2.00;;;;;22.55;100.00;101023.66;5049476;28;45798;-77
2023/08/29 09:33:21;;;;;;;;;3.33;2.67;;;;;22.56;100.00;101014.63;5038637;28;45632;-74
2023/08/29 09:35:46;;;;;;;;;5.33;2.33;;;;;22.62;100.00;101021.59;5048391;28;45486;-74
2023/08/29 09:38:12;;;;;;;;;2.00;2.00;;;;;22.68;100.00;101016.88;5052909;28;62268;-74
2023/08/29 09:40:51;;;;;;;;;3.33;3.33;;;;;22.80;100.00;101017.34;5052838;28;69782;-77
2023/08/29 09:43:17;;;;;;;;;3.67;3.00;;;;;22.87;100.00;101021.59;5040954;28;45461;-74
2023/08/29 09:45:48;;;;;;;;;4.00;3.00;;;;;22.92;100.00;101016.97;5048592;28;46619;-74
2023/08/29 09:48:14;;;;;;;;;2.00;2.00;;;;;22.99;100.00;101013.09;5050260;28;45600;-74
2023/08/29 09:50:41;;;;;;;;;3.00;3.00;;;;;23.10;100.00;101005.47;5051596;28;70753;-75
2023/08/29 09:53:07;;;;;;;;;1.00;1.00;;;;;23.08;100.00;101003.81;5048107;28;45449;-75
2023/08/29 09:55:43;;;;;;;;;2.33;2.33;;;;;23.08;100.00;101010.06;5027910;28;45562;-76
2023/08/29 09:58:10;;;;;;;;;3.67;2.33;;;;;23.05;100.00;101017.38;5024435;28;45459;-74
2023/08/29 10:00:36;;;;;;;;;3.00;3.00;;;;;23.00;100.00;101004.94;5054170;28;45850;-74
2023/08/29 10:03:06;;;;;;;;;2.00;2.00;;;;;23.01;100.00;101008.56;5054329;28;45427;-74
2023/08/29 10:05:36;;;;;;;;;2.33;2.33;;;;;22.94;100.00;101004.31;5044728;28;45534;-75
2023/08/29 10:08:12;;;;;;;;;3.00;3.00;;;;;23.00;100.00;100999.56;5032029;28;45517;-74
2023/08/29 10:10:42;;;;;;;;;2.67;2.00;;;;;23.20;100.00;100997.94;5049653;28;46275;-73
2023/08/29 10:13:08;;;;;;;;;3.67;3.00;;;;;23.43;100.00;100999.72;5053574;28;45435;-74
2023/08/29 10:15:34;;;;;;;;;3.67;3.67;;;;;23.67;100.00;100995.22;5047602;28;45431;-74
2023/08/29 10:18:00;;;;;;;;;4.33;4.33;;;;;23.80;100.00;100988.34;5038756;28;45364;-73
2023/08/29 10:20:26;;;;;;;;;5.00;5.00;;;;;23.89;100.00;100990.69;5050174;28;62967;-73
2023/08/29 10:22:52;;;;;;;;;2.00;2.00;;;;;23.81;100.00;100995.53;5054864;28;45449;-74
2023/08/29 10:25:23;;;;;;;;;4.67;3.00;;;;;23.79;100.00;100981.22;5051757;28;45559;-73
2023/08/29 10:27:49;;;;;;;;;4.33;2.67;;;;;23.69;100.00;100988.78;5053127;28;45431;-74
2023/08/29 10:30:15;;;;;;;;;5.33;3.00;;;;;23.59;100.00;100986.50;5049099;28;45261;-74
2023/08/29 10:32:41;;;;;;;;;5.00;4.33;;;;;23.45;100.00;100995.16;5034125;28;70275;-73
2023/08/29 10:35:16;;;;;;;;;3.00;3.00;;;;;23.22;100.00;100998.72;5041323;28;45442;-75
2023/08/29 10:37:42;;;;;;;;;8.00;4.67;;;;;23.04;100.00;100986.88;5044467;28;45589;-76
2023/08/29 10:40:10;;;;;;;;;4.00;3.00;;;;;22.94;100.00;100986.34;5043828;28;67674;-76
2023/08/29 10:42:52;;;;;;;;;6.00;4.00;;;;;22.89;100.00;100992.81;5051785;28;45420;-76
2023/08/29 10:45:19;;;;;;;;;3.00;3.00;;;;;22.77;100.00;100990.56;5055889;28;45429;-73
2023/08/29 10:47:46;;;;;;;;;4.00;4.00;;;;;22.66;100.00;100990.97;5048887;28;45478;-72
2023/08/29 10:50:17;;;;;;;;;5.00;4.33;;;;;22.60;100.00;100986.69;5055420;28;46613;-74
2023/08/29 10:52:44;;;;;;;;;6.00;3.00;;;;;22.60;100.00;100988.50;5034305;28;45509;-73
2023/08/29 10:55:23;;;;;;;;;3.67;3.67;;;;;22.62;100.00;100986.63;5055802;28;45355;-73
2023/08/29 10:57:49;;;;;;;;;4.67;3.33;;;;;22.63;100.00;100977.59;5049959;28;45502;-74
2023/08/29 11:00:17;;;;;;;;;3.67;3.67;;;;;22.67;100.00;100982.81;5056935;28;46682;-72
2023/08/29 11:02:43;;;;;;;;;3.00;3.00;;;;;22.69;100.00;100982.75;5055599;28;45463;-74
2023/08/29 11:05:13;;;;;;;;;6.00;4.00;;;;;22.70;100.00;100982.72;5054099;28;45324;-73
2023/08/29 11:07:39;;;;;;;;;3.00;3.00;;;;;22.75;100.00;100979.88;5052422;28;45474;-74
2023/08/29 11:10:23;;;;;;;;;3.00;3.00;;;;;22.76;100.00;100978.91;5047534;28;46395;-73
2023/08/29 11:13:07;;;;;;;;;5.00;4.00;;;;;22.79;100.00;100973.41;5055373;28;45433;-73
2023/08/29 11:15:51;;;;;;;;;4.00;4.00;;;;;22.84;100.00;100975.94;5056588;28;45273;-73